Time;durP1;ratioP1;P1;durP2;ratioP2;P2;SDS_P1;SDS_P2;PMS_P1;PMS_P2;Temp;Humidity;BMP_temperature;BMP_pressure;BME280_temperature;BME280_humidity;BME280_pressure;Samples;Min_cycle;Max_cycle;Signal;HPM_P1;HPM_P2
2023/03/03 00:01:01;;;;;;;50.77;26.07;;;1.60;99.90;;;;;;5100190;28;20217;-78
2023/03/03 00:03:26;;;;;;;53.13;26.30;;;1.60;99.90;;;;;;5082061;28;20171;-78
2023/03/03 00:05:53;;;;;;;50.93;25.00;;;1.60;99.90;;;;;;5081779;28;20554;-78
2023/03/03 00:08:19;;;;;;;49.57;24.37;;;1.60;99.90;;;;;;5082131;28;20178;-80
2023/03/03 00:10:46;;;;;;;55.93;26.53;;;1.60;99.90;;;;;;5099707;28;20241;-79
2023/03/03 00:13:17;;;;;;;54.57;26.00;;;1.60;99.90;;;;;;5100151;28;20182;-78
2023/03/03 00:15:43;;;;;;;57.00;26.13;;;1.60;99.90;;;;;;5082256;28;20201;-79
2023/03/03 00:18:25;;;;;;;51.80;26.97;;;1.70;99.90;;;;;;5100454;28;20532;-79
2023/03/03 00:20:59;;;;;;;50.23;24.57;;;1.60;99.90;;;;;;5082036;28;20194;-79
2023/03/03 00:23:39;;;;;;;55.27;24.67;;;1.70;99.90;;;;;;5100298;28;20177;-79
2023/03/03 00:26:35;;;;;;;54.80;25.33;;;1.70;99.90;;;;;;5100291;28;20645;-78
2023/03/03 00:29:01;;;;;;;55.50;24.57;;;1.70;99.90;;;;;;5079934;28;20174;-78
2023/03/03 00:31:34;;;;;;;48.80;25.90;;;1.70;99.90;;;;;;5078768;28;20209;-78
2023/03/03 00:34:24;;;;;;;52.80;25.47;;;1.70;99.90;;;;;;5078971;28;20265;-79
2023/03/03 00:36:56;;;;;;;56.80;25.50;;;1.70;99.90;;;;;;5097440;28;20201;-78
2023/03/03 00:39:30;;;;;;;60.40;28.67;;;1.70;99.90;;;;;;5079179;28;20552;-79
2023/03/03 00:41:57;;;;;;;62.77;26.83;;;1.70;99.90;;;;;;5097118;28;20201;-78
2023/03/03 00:44:43;;;;;;;60.80;26.90;;;1.80;99.90;;;;;;5078442;28;20380;-78
2023/03/03 00:47:38;;;;;;;58.80;26.40;;;1.80;99.90;;;;;;5078575;28;20253;-78
2023/03/03 00:50:25;;;;;;;53.00;25.40;;;1.80;99.90;;;;;;5090497;28;20200;-78
2023/03/03 00:53:04;;;;;;;54.80;25.50;;;1.80;99.90;;;;;;5078566;28;20181;-79
2023/03/03 00:55:30;;;;;;;53.27;25.37;;;1.80;99.90;;;;;;5096905;28;20272;-78
2023/03/03 00:57:56;;;;;;;53.90;25.47;;;1.80;99.90;;;;;;5077980;28;20259;-78
2023/03/03 01:00:22;;;;;;;58.17;26.97;;;1.80;99.90;;;;;;5077942;28;20208;-78
2023/03/03 01:02:47;;;;;;;50.60;25.03;;;1.80;99.90;;;;;;5078390;28;20174;-78
2023/03/03 01:05:15;;;;;;;52.37;24.03;;;1.80;99.90;;;;;;5096609;28;20166;-79
2023/03/03 01:07:41;;;;;;;51.30;23.03;;;1.80;99.90;;;;;;5077999;28;20683;-79
2023/03/03 01:10:07;;;;;;;51.03;24.53;;;1.80;99.90;;;;;;5095469;28;20190;-79
2023/03/03 01:12:33;;;;;;;54.93;24.30;;;1.80;99.90;;;;;;5077605;28;20595;-78
2023/03/03 01:14:58;;;;;;;51.93;24.73;;;1.80;99.90;;;;;;5077730;28;20205;-78
2023/03/03 01:17:24;;;;;;;56.87;26.63;;;1.80;99.90;;;;;;5096270;28;20270;-78
2023/03/03 01:19:49;;;;;;;54.03;26.80;;;1.80;99.90;;;;;;5077712;28;20174;-79
2023/03/03 01:22:15;;;;;;;59.93;26.53;;;1.80;99.90;;;;;;5096239;28;20190;-78
2023/03/03 01:24:40;;;;;;;59.00;28.20;;;1.80;99.90;;;;;;5077310;28;20210;-78
2023/03/03 01:27:06;;;;;;;57.10;27.97;;;1.80;99.90;;;;;;5095696;28;20205;-78
2023/03/03 01:29:32;;;;;;;56.80;26.47;;;1.80;99.90;;;;;;5095381;28;20186;-78
2023/03/03 01:31:57;;;;;;;59.43;27.83;;;1.80;99.90;;;;;;5095348;28;20227;-78
2023/03/03 01:34:23;;;;;;;51.13;26.07;;;1.80;99.90;;;;;;5077028;28;20212;-78
2023/03/03 01:36:49;;;;;;;58.97;28.17;;;1.80;99.90;;;;;;5095433;28;20544;-78
2023/03/03 01:39:14;;;;;;;61.20;27.90;;;1.80;99.90;;;;;;5077009;28;20162;-78
2023/03/03 01:41:40;;;;;;;62.23;29.90;;;1.90;99.90;;;;;;5075792;28;20198;-78
2023/03/03 01:44:05;;;;;;;60.73;28.03;;;1.80;99.90;;;;;;5094898;28;20541;-78
2023/03/03 01:46:37;;;;;;;60.43;29.20;;;1.80;99.90;;;;;;5094918;28;20245;-79
2023/03/03 01:49:11;;;;;;;59.13;27.97;;;1.80;99.90;;;;;;5076424;28;20169;-78
2023/03/03 01:51:44;;;;;;;55.37;28.17;;;1.80;99.90;;;;;;5077151;28;20620;-79
2023/03/03 01:54:18;;;;;;;53.70;26.23;;;1.80;99.90;;;;;;5076529;28;20163;-79
2023/03/03 01:56:44;;;;;;;56.43;26.90;;;1.80;99.90;;;;;;5094801;28;20165;-78
2023/03/03 01:59:34;;;;;;;61.27;27.33;;;1.80;99.90;;;;;;5076350;28;20548;-78
2023/03/03 02:02:00;;;;;;;53.50;26.33;;;1.90;99.90;;;;;;5094307;28;20182;-78
2023/03/03 02:04:26;;;;;;;52.47;25.33;;;1.80;99.90;;;;;;5076672;28;20184;-78
2023/03/03 02:07:00;;;;;;;51.30;25.40;;;1.90;99.90;;;;;;5076718;28;20174;-78
2023/03/03 02:10:03;;;;;;;52.73;25.20;;;1.90;99.90;;;;;;5077146;28;20554;-78
2023/03/03 02:12:40;;;;;;;50.87;24.80;;;1.90;99.90;;;;;;5094785;28;20248;-78
2023/03/03 02:15:36;;;;;;;49.17;25.33;;;1.90;99.90;;;;;;5095269;28;20231;-79
2023/03/03 02:18:09;;;;;;;53.97;25.33;;;1.90;99.90;;;;;;5073725;28;20182;-78
2023/03/03 02:20:53;;;;;;;51.87;26.53;;;1.90;99.90;;;;;;5094216;28;20246;-78
2023/03/03 02:23:37;;;;;;;55.37;25.83;;;1.90;99.90;;;;;;5094138;28;20614;-78
2023/03/03 02:26:33;;;;;;;51.23;24.43;;;1.90;99.90;;;;;;5094201;28;20561;-79
2023/03/03 02:28:59;;;;;;;50.50;23.93;;;1.90;99.90;;;;;;5093450;28;20190;-77
2023/03/03 02:31:28;;;;;;;61.30;26.47;;;1.90;99.90;;;;;;5094094;28;20247;-78
2023/03/03 02:33:54;;;;;;;56.83;25.77;;;1.90;99.90;;;;;;5094637;28;20178;-78
2023/03/03 02:36:28;;;;;;;52.27;24.83;;;1.90;99.90;;;;;;5078385;28;20205;-78
2023/03/03 02:39:06;;;;;;;53.40;25.03;;;1.90;99.90;;;;;;5096169;28;20161;-78
2023/03/03 02:41:59;;;;;;;54.00;24.77;;;1.90;99.90;;;;;;5095414;28;20292;-78
2023/03/03 02:44:29;;;;;;;50.73;24.80;;;1.90;99.90;;;;;;5094069;28;20177;-78
2023/03/03 02:46:55;;;;;;;54.50;24.63;;;1.80;99.90;;;;;;5095205;28;20173;-78
2023/03/03 02:49:26;;;;;;;52.10;25.60;;;1.80;99.90;;;;;;5095636;28;20180;-78
2023/03/03 02:51:53;;;;;;;54.60;25.33;;;1.80;99.90;;;;;;5075936;28;20202;-78
2023/03/03 02:54:20;;;;;;;51.83;23.23;;;1.80;99.90;;;;;;5093435;28;20708;-78
2023/03/03 02:56:46;;;;;;;50.07;24.20;;;1.80;99.90;;;;;;5093640;28;20182;-78
2023/03/03 02:59:13;;;;;;;47.97;24.93;;;1.80;99.90;;;;;;5093676;28;20177;-78
2023/03/03 03:01:38;;;;;;;49.97;24.07;;;1.80;99.90;;;;;;5075205;28;20246;-78
2023/03/03 03:04:10;;;;;;;46.43;21.67;;;1.80;99.90;;;;;;5093510;28;20174;-79
2023/03/03 03:06:37;;;;;;;47.80;22.07;;;1.80;99.90;;;;;;5093600;28;20158;-78
2023/03/03 03:09:04;;;;;;;42.87;23.20;;;1.80;99.90;;;;;;5093678;28;20610;-79
2023/03/03 03:11:30;;;;;;;43.97;21.77;;;2.00;99.90;;;;;;5093464;28;20194;-79
2023/03/03 03:13:55;;;;;;;39.03;20.73;;;1.80;99.90;;;;;;5093899;28;20526;-79
2023/03/03 03:16:21;;;;;;;41.43;22.27;;;1.80;99.90;;;;;;5075268;28;20209;-79
2023/03/03 03:18:47;;;;;;;39.07;21.27;;;1.80;99.90;;;;;;5075169;28;20206;-78
2023/03/03 03:21:12;;;;;;;49.63;23.10;;;1.80;99.90;;;;;;5074865;28;20189;-78
2023/03/03 03:23:39;;;;;;;40.17;20.50;;;1.80;99.90;;;;;;5074548;28;20208;-78
2023/03/03 03:26:05;;;;;;;44.40;22.40;;;1.80;99.90;;;;;;5092839;28;20174;-78
2023/03/03 03:28:31;;;;;;;51.23;24.60;;;1.80;99.90;;;;;;5074775;28;20174;-78
2023/03/03 03:30:57;;;;;;;51.80;24.43;;;1.80;99.90;;;;;;5074878;28;20198;-78
2023/03/03 03:33:23;;;;;;;50.27;25.03;;;1.80;99.90;;;;;;5092933;28;20200;-78
2023/03/03 03:35:49;;;;;;;53.87;25.47;;;1.80;99.90;;;;;;5092820;28;20201;-78
2023/03/03 03:38:15;;;;;;;52.33;25.43;;;1.80;99.90;;;;;;5093089;28;20162;-79
2023/03/03 03:40:41;;;;;;;49.27;24.00;;;1.80;99.90;;;;;;5074881;28;20601;-78
2023/03/03 03:43:07;;;;;;;52.53;24.90;;;1.80;99.90;;;;;;5093089;28;20167;-78
2023/03/03 03:45:33;;;;;;;48.37;24.67;;;1.80;99.90;;;;;;5092666;28;20174;-78
2023/03/03 03:47:58;;;;;;;49.83;24.27;;;1.80;99.90;;;;;;5074969;28;20175;-79
2023/03/03 03:50:24;;;;;;;48.83;24.67;;;1.80;99.90;;;;;;5092923;28;20194;-78
2023/03/03 03:52:50;;;;;;;48.37;24.03;;;1.80;99.90;;;;;;5093542;28;20198;-78
2023/03/03 03:55:15;;;;;;;46.77;24.33;;;1.80;99.90;;;;;;5074399;28;20631;-79
2023/03/03 03:57:42;;;;;;;54.13;25.57;;;1.80;99.90;;;;;;5074548;28;20170;-78
2023/03/03 04:00:09;;;;;;;52.10;25.13;;;1.80;99.90;;;;;;5092620;28;20163;-78
2023/03/03 04:02:35;;;;;;;51.77;24.97;;;1.80;99.90;;;;;;5074295;28;20193;-78
2023/03/03 04:05:01;;;;;;;50.87;25.10;;;1.80;99.90;;;;;;5095241;28;20219;-78
2023/03/03 04:07:27;;;;;;;48.87;24.43;;;1.80;99.90;;;;;;5078270;28;20260;-78
2023/03/03 04:09:52;;;;;;;46.57;23.67;;;1.80;99.90;;;;;;5096513;28;20287;-79
2023/03/03 04:12:18;;;;;;;42.80;22.83;;;1.80;99.90;;;;;;5077926;28;20205;-78
2023/03/03 04:14:43;;;;;;;47.47;23.80;;;1.80;99.90;;;;;;5096429;28;20194;-78
2023/03/03 04:17:21;;;;;;;48.57;24.70;;;1.80;99.90;;;;;;5078430;28;20224;-78
2023/03/03 04:19:47;;;;;;;42.70;23.27;;;1.80;99.90;;;;;;5096359;28;20161;-78
2023/03/03 04:22:13;;;;;;;51.10;24.87;;;1.80;99.90;;;;;;5078350;28;20198;-78
2023/03/03 04:24:39;;;;;;;53.40;26.07;;;1.80;99.90;;;;;;5077800;28;20174;-78
2023/03/03 04:27:05;;;;;;;51.90;25.07;;;1.80;99.90;;;;;;5096041;28;20541;-78
2023/03/03 04:29:30;;;;;;;47.80;23.87;;;1.80;99.90;;;;;;5077774;28;20178;-78
2023/03/03 04:31:56;;;;;;;55.37;26.50;;;1.80;99.90;;;;;;5077586;28;20209;-78
2023/03/03 04:34:22;;;;;;;51.77;26.03;;;1.80;99.90;;;;;;5095846;28;20202;-78
2023/03/03 04:36:47;;;;;;;48.50;25.30;;;1.80;99.90;;;;;;5095832;28;20254;-79
2023/03/03 04:39:13;;;;;;;54.50;24.77;;;1.70;99.90;;;;;;5077583;28;20679;-78
2023/03/03 04:41:38;;;;;;;45.10;22.67;;;1.80;99.90;;;;;;5095959;28;20205;-78
2023/03/03 04:44:04;;;;;;;51.40;26.00;;;1.80;99.90;;;;;;5095837;28;20177;-78
2023/03/03 04:46:30;;;;;;;53.53;26.13;;;1.70;99.90;;;;;;5096362;28;20170;-78
2023/03/03 04:48:55;;;;;;;54.30;26.07;;;1.80;99.90;;;;;;5077708;28;20566;-78
2023/03/03 04:51:21;;;;;;;55.70;26.40;;;1.80;99.90;;;;;;5095781;28;20590;-78
2023/03/03 04:53:47;;;;;;;56.80;27.27;;;1.80;99.90;;;;;;5096456;28;20235;-78
2023/03/03 04:56:13;;;;;;;58.33;27.63;;;1.70;99.90;;;;;;5077471;28;20198;-78
2023/03/03 04:58:38;;;;;;;54.70;26.80;;;1.70;99.90;;;;;;5095398;28;20257;-79
2023/03/03 05:01:04;;;;;;;52.00;26.83;;;1.80;99.90;;;;;;5095322;28;20764;-79
2023/03/03 05:03:30;;;;;;;54.47;27.73;;;1.70;99.90;;;;;;5095248;28;20166;-78
2023/03/03 05:05:56;;;;;;;53.73;27.10;;;1.70;99.90;;;;;;5095317;28;20181;-79
2023/03/03 05:08:22;;;;;;;48.07;23.03;;;1.70;99.90;;;;;;5079700;28;20184;-84
2023/03/03 05:10:51;;;;;;;42.63;22.10;;;1.70;99.90;;;;;;5099965;28;20267;-84
2023/03/03 05:13:17;;;;;;;36.70;19.93;;;1.70;99.90;;;;;;5081610;28;20174;-84
2023/03/03 05:15:47;;;;;;;42.37;20.97;;;1.70;99.90;;;;;;5100061;28;20226;-85
2023/03/03 05:18:13;;;;;;;37.50;17.77;;;1.70;99.90;;;;;;5081506;28;20178;-84
2023/03/03 05:20:40;;;;;;;34.93;19.10;;;1.60;99.90;;;;;;5071394;28;20203;-84
2023/03/03 05:23:06;;;;;;;37.03;18.57;;;1.60;99.90;;;;;;5076903;28;20180;-84
2023/03/03 05:25:31;;;;;;;33.00;17.13;;;1.50;99.90;;;;;;5081028;28;20265;-84
2023/03/03 05:27:58;;;;;;;35.53;19.10;;;1.50;99.90;;;;;;5081602;28;20175;-84
2023/03/03 05:30:23;;;;;;;34.00;17.30;;;1.50;99.90;;;;;;5082734;28;20205;-83
2023/03/03 05:32:49;;;;;;;29.47;15.10;;;1.50;99.90;;;;;;5098354;28;20526;-85
2023/03/03 05:35:14;;;;;;;26.33;14.93;;;1.50;99.90;;;;;;5078354;28;20197;-86
2023/03/03 05:37:45;;;;;;;28.33;14.73;;;1.50;99.90;;;;;;5079459;28;20170;-86
2023/03/03 05:40:12;;;;;;;30.20;15.27;;;1.40;99.90;;;;;;5098747;28;20166;-85
2023/03/03 05:42:37;;;;;;;27.50;14.57;;;1.50;99.90;;;;;;5081446;28;20228;-85
2023/03/03 05:45:03;;;;;;;27.33;14.40;;;1.40;99.90;;;;;;5080154;28;20189;-85
2023/03/03 05:47:29;;;;;;;28.43;14.57;;;1.40;99.90;;;;;;5080220;28;20198;-85
2023/03/03 05:49:54;;;;;;;31.07;16.40;;;1.40;99.90;;;;;;5100804;28;20174;-83
2023/03/03 05:52:20;;;;;;;29.20;16.13;;;1.40;99.90;;;;;;5089948;28;20274;-84
2023/03/03 05:54:46;;;;;;;28.63;15.50;;;1.40;99.90;;;;;;5090653;28;20203;-85
2023/03/03 05:57:11;;;;;;;29.37;15.53;;;1.40;99.90;;;;;;5100881;28;20641;-84
2023/03/03 05:59:37;;;;;;;31.87;16.37;;;1.40;99.90;;;;;;5079417;28;20174;-85
2023/03/03 06:02:02;;;;;;;29.40;15.70;;;1.30;99.90;;;;;;5100600;28;20716;-84
2023/03/03 06:04:28;;;;;;;33.63;17.17;;;1.30;99.90;;;;;;5082935;28;20247;-84
2023/03/03 06:06:53;;;;;;;28.70;15.83;;;1.30;99.90;;;;;;5082917;28;20178;-84
2023/03/03 06:09:19;;;;;;;28.47;15.23;;;1.40;99.90;;;;;;5082423;28;20190;-83
2023/03/03 06:11:45;;;;;;;39.00;16.80;;;1.30;99.90;;;;;;5081972;28;20213;-82
2023/03/03 06:14:11;;;;;;;38.10;17.70;;;1.30;99.90;;;;;;5081115;28;20174;-82
2023/03/03 06:16:36;;;;;;;40.23;20.17;;;1.40;99.90;;;;;;5081829;28;20166;-82
2023/03/03 06:19:02;;;;;;;40.37;19.67;;;1.40;99.90;;;;;;5100021;28;20166;-82
2023/03/03 06:21:27;;;;;;;36.50;19.43;;;1.40;99.90;;;;;;5081477;28;20258;-83
2023/03/03 06:23:53;;;;;;;39.47;18.43;;;1.40;99.90;;;;;;5100038;28;20269;-84
2023/03/03 06:26:18;;;;;;;39.97;19.27;;;1.40;99.90;;;;;;5082130;28;20212;-84
2023/03/03 06:28:44;;;;;;;40.47;19.60;;;1.40;99.90;;;;;;5082901;28;20257;-83
2023/03/03 06:31:09;;;;;;;39.93;19.03;;;1.40;99.90;;;;;;5082690;28;20210;-83
2023/03/03 06:33:36;;;;;;;40.93;18.23;;;1.40;99.90;;;;;;5082450;28;20174;-85
2023/03/03 06:36:01;;;;;;;48.13;21.40;;;1.40;99.90;;;;;;5098865;28;20198;-85
2023/03/03 06:38:27;;;;;;;40.90;19.17;;;1.50;99.90;;;;;;5078355;28;20172;-85
2023/03/03 06:40:52;;;;;;;46.70;19.90;;;1.50;99.90;;;;;;5078229;28;20196;-85
2023/03/03 06:43:18;;;;;;;44.03;19.40;;;1.50;99.90;;;;;;5078716;28;20174;-85
2023/03/03 06:45:45;;;;;;;44.57;20.30;;;1.50;99.90;;;;;;5096628;28;20182;-85
2023/03/03 06:48:10;;;;;;;40.40;19.77;;;1.50;99.90;;;;;;5082701;28;20298;-83
2023/03/03 06:50:38;;;;;;;44.17;20.60;;;1.90;99.90;;;;;;5084432;28;20212;-81
2023/03/03 06:53:12;;;;;;;44.00;19.87;;;1.60;99.90;;;;;;5082840;28;20260;-82
2023/03/03 06:55:38;;;;;;;35.87;17.60;;;1.60;99.90;;;;;;5082964;28;20197;-85
2023/03/03 06:58:20;;;;;;;42.50;19.67;;;1.60;99.90;;;;;;5084378;28;20234;-85
2023/03/03 07:00:57;;;;;;;42.40;19.57;;;1.60;99.90;;;;;;5083368;28;20190;-82
2023/03/03 07:03:27;;;;;;;42.70;19.17;;;1.60;99.90;;;;;;5079793;28;20266;-80
2023/03/03 07:05:52;;;;;;;40.57;19.63;;;1.60;99.90;;;;;;5079014;28;20178;-81
2023/03/03 07:08:21;;;;;;;43.07;20.83;;;1.70;99.90;;;;;;5078745;28;20736;-78
2023/03/03 07:10:49;;;;;;;47.00;21.27;;;1.70;99.90;;;;;;5079648;28;20599;-79
2023/03/03 07:13:26;;;;;;;42.30;20.20;;;1.70;99.90;;;;;;5083613;28;20185;-79
2023/03/03 07:15:53;;;;;;;49.20;22.33;;;1.70;99.90;;;;;;5084058;28;20221;-79
2023/03/03 07:18:50;;;;;;;49.17;22.07;;;1.70;99.90;;;;;;5099395;28;20673;-79
2023/03/03 07:21:32;;;;;;;45.77;21.97;;;1.70;99.90;;;;;;5100455;28;20212;-79
2023/03/03 07:24:00;;;;;;;50.37;22.40;;;1.70;99.90;;;;;;5099280;28;20184;-79
2023/03/03 07:26:31;;;;;;;49.10;23.37;;;1.70;99.90;;;;;;5099484;28;20186;-79
2023/03/03 07:29:21;;;;;;;60.72;30.60;;;1.70;99.90;;;;;;5097304;28;20393;-79
2023/03/03 07:31:48;;;;;;;53.40;25.93;;;1.70;99.90;;;;;;5079677;28;20719;-79
2023/03/03 07:34:29;;;;;;;50.07;24.27;;;1.80;99.90;;;;;;5077175;28;20174;-78
2023/03/03 07:37:03;;;;;;;62.87;33.00;;;1.70;99.90;;;;;;5077548;28;20397;-79
2023/03/03 07:39:42;;;;;;;53.20;26.57;;;1.70;99.90;;;;;;5100353;28;20184;-78
2023/03/03 07:42:19;;;;;;;48.93;22.83;;;1.80;99.90;;;;;;5082627;28;20186;-78
2023/03/03 07:44:47;;;;;;;46.33;20.17;;;1.80;99.90;;;;;;5101225;28;20243;-80
2023/03/03 07:47:25;;;;;;;47.23;21.43;;;1.80;99.90;;;;;;5083222;28;20542;-79
2023/03/03 07:49:54;;;;;;;45.47;20.30;;;1.80;99.90;;;;;;5102253;28;20172;-79
2023/03/03 07:52:31;;;;;;;49.85;24.27;;;1.80;99.90;;;;;;5103013;28;20405;-81
2023/03/03 07:55:00;;;;;;;44.90;21.73;;;1.80;99.90;;;;;;5088438;28;20296;-81
2023/03/03 07:57:35;;;;;;;50.50;22.17;;;1.90;99.90;;;;;;5107388;28;20198;-81
2023/03/03 08:00:27;;;;;;;44.93;21.03;;;1.90;99.90;;;;;;5102794;28;20147;-80
2023/03/03 08:02:56;;;;;;;49.23;20.90;;;1.90;99.90;;;;;;5038314;28;20214;-79
2023/03/03 08:05:36;;;;;;;51.93;22.47;;;1.90;99.90;;;;;;5103494;28;20194;-78
2023/03/03 08:08:08;;;;;;;50.73;22.00;;;1.90;99.90;;;;;;5086957;28;20173;-79
2023/03/03 08:10:35;;;;;;;48.87;21.90;;;2.00;99.90;;;;;;5116323;28;20206;-79
2023/03/03 08:13:12;;;;;;;51.20;22.30;;;2.00;99.90;;;;;;5093903;28;20182;-79
2023/03/03 08:15:38;;;;;;;50.53;21.03;;;2.00;99.90;;;;;;5083089;28;20200;-80
2023/03/03 08:18:17;;;;;;;43.10;19.67;;;1.90;99.90;;;;;;5101845;28;20170;-80
2023/03/03 08:20:48;;;;;;;44.73;19.63;;;2.00;99.90;;;;;;5101587;28;20280;-79
2023/03/03 08:23:16;;;;;;;49.23;22.00;;;2.00;99.90;;;;;;5101302;28;20166;-79
2023/03/03 08:25:42;;;;;;;49.67;20.97;;;2.00;99.90;;;;;;5083213;28;20182;-80
2023/03/03 08:28:09;;;;;;;48.30;20.47;;;2.00;99.90;;;;;;5101327;28;20174;-80
2023/03/03 08:30:34;;;;;;;45.63;22.20;;;2.00;99.90;;;;;;5082587;28;20198;-80
2023/03/03 08:33:00;;;;;;;46.20;22.03;;;2.10;99.90;;;;;;5101043;28;20174;-80
2023/03/03 08:35:26;;;;;;;48.43;21.20;;;2.10;99.90;;;;;;5101197;28;20677;-80
2023/03/03 08:37:51;;;;;;;47.20;21.87;;;2.10;99.90;;;;;;5098812;28;20176;-78
2023/03/03 08:40:17;;;;;;;45.87;21.40;;;2.10;99.90;;;;;;5098058;28;20364;-78
2023/03/03 08:42:42;;;;;;;50.10;22.13;;;2.10;99.90;;;;;;5079700;28;20179;-78
2023/03/03 08:45:08;;;;;;;43.47;21.17;;;2.10;99.90;;;;;;5097947;28;20541;-79
2023/03/03 08:47:34;;;;;;;43.60;20.37;;;2.20;99.90;;;;;;5097664;28;20664;-78
2023/03/03 08:49:59;;;;;;;43.53;21.40;;;2.20;99.90;;;;;;5079056;28;20193;-78
2023/03/03 08:52:25;;;;;;;51.40;21.90;;;2.20;99.90;;;;;;5097466;28;20815;-78
2023/03/03 08:54:51;;;;;;;43.43;22.37;;;2.20;99.90;;;;;;5079529;28;20584;-78
2023/03/03 08:57:17;;;;;;;53.90;23.90;;;2.30;99.90;;;;;;5098158;28;20266;-78
2023/03/03 08:59:43;;;;;;;55.40;23.83;;;2.20;99.90;;;;;;5097399;28;20190;-78
2023/03/03 09:02:08;;;;;;;47.37;22.33;;;2.30;99.90;;;;;;5079299;28;20743;-78
2023/03/03 09:04:34;;;;;;;54.17;24.53;;;2.30;99.90;;;;;;5097624;28;20174;-78
2023/03/03 09:07:01;;;;;;;63.47;29.73;;;2.30;99.90;;;;;;5098059;28;20174;-78
2023/03/03 09:09:26;;;;;;;60.93;28.23;;;2.30;99.90;;;;;;5096791;28;20197;-78
2023/03/03 09:11:56;;;;;;;57.67;27.63;;;2.30;99.90;;;;;;5078988;28;20540;-77
2023/03/03 09:14:27;;;;;;;61.10;27.87;;;2.30;99.90;;;;;;5078683;28;20162;-78
2023/03/03 09:16:55;;;;;;;61.73;28.47;;;2.30;99.90;;;;;;5098388;28;20155;-78
2023/03/03 09:19:31;;;;;;;78.93;31.07;;;2.30;99.90;;;;;;5080737;28;20181;-78
2023/03/03 09:22:22;;;;;;;64.93;29.33;;;2.30;99.90;;;;;;5097431;28;20186;-78
2023/03/03 09:24:52;;;;;;;65.50;29.53;;;2.30;99.90;;;;;;5078990;28;20190;-78
2023/03/03 09:27:28;;;;;;;62.23;27.03;;;2.40;99.90;;;;;;5096893;28;20250;-78
2023/03/03 09:29:53;;;;;;;65.10;28.47;;;2.40;99.90;;;;;;5094748;28;20532;-77
2023/03/03 09:32:37;;;;;;;67.23;28.50;;;2.40;99.90;;;;;;5076160;28;20202;-77
2023/03/03 09:35:36;;;;;;;65.17;27.37;;;2.50;99.90;;;;;;5093417;28;20684;-78
2023/03/03 09:38:25;;;;;;;65.83;28.17;;;2.50;99.90;;;;;;5076055;28;20239;-77
2023/03/03 09:41:29;;;;;;;64.37;27.10;;;2.50;99.90;;;;;;5093959;28;20243;-77
2023/03/03 09:43:58;;;;;;;61.80;27.93;;;2.60;99.90;;;;;;5076080;28;20177;-77
2023/03/03 09:46:53;;;;;;;66.07;27.43;;;2.60;99.90;;;;;;5093994;28;20266;-77
2023/03/03 09:49:31;;;;;;;56.73;26.27;;;2.60;99.90;;;;;;5093978;28;20159;-77
2023/03/03 09:52:19;;;;;;;58.47;26.23;;;2.60;99.90;;;;;;5075937;28;20565;-77
2023/03/03 09:55:08;;;;;;;62.00;27.60;;;2.60;99.90;;;;;;5075719;28;20185;-77
2023/03/03 09:57:52;;;;;;;54.70;24.40;;;2.60;99.90;;;;;;5027668;28;20182;-79
2023/03/03 10:00:48;;;;;;;58.53;25.97;;;2.70;99.90;;;;;;5096999;28;20235;-78
2023/03/03 10:03:24;;;;;;;60.33;26.03;;;2.70;99.90;;;;;;5097503;28;20167;-78
2023/03/03 10:06:09;;;;;;;56.87;25.03;;;2.80;99.90;;;;;;5099500;28;20169;-79
2023/03/03 10:09:07;;;;;;;56.90;26.30;;;2.80;99.90;;;;;;5082045;28;20169;-79
2023/03/03 10:11:50;;;;;;;52.77;23.03;;;2.80;99.90;;;;;;5099284;28;20195;-80
2023/03/03 10:14:51;;;;;;;56.33;24.20;;;2.90;99.90;;;;;;5082072;28;20518;-80
2023/03/03 10:17:42;;;;;;;60.50;24.87;;;2.90;99.90;;;;;;5081949;28;20163;-80
2023/03/03 10:20:22;;;;;;;50.50;23.07;;;3.00;99.90;;;;;;5082288;28;20177;-79
2023/03/03 10:22:53;;;;;;;46.73;20.70;;;3.00;99.90;;;;;;5099310;28;20180;-80
2023/03/03 10:25:37;;;;;;;44.97;20.30;;;3.00;99.90;;;;;;5081959;28;20174;-80
2023/03/03 10:28:24;;;;;;;44.60;20.23;;;3.00;99.90;;;;;;5100241;28;20181;-80
2023/03/03 10:31:22;;;;;;;53.67;23.53;;;3.10;99.90;;;;;;5080384;28;20588;-80
2023/03/03 10:33:59;;;;;;;57.43;26.10;;;3.10;99.90;;;;;;5098419;28;20170;-79
2023/03/03 10:36:54;;;;;;;60.53;26.73;;;3.20;99.90;;;;;;5099439;28;20260;-80
2023/03/03 10:39:44;;;;;;;61.27;27.43;;;3.30;99.90;;;;;;5081765;28;20169;-79
2023/03/03 10:42:24;;;;;;;63.40;28.77;;;3.30;99.90;;;;;;5099133;28;20190;-79
2023/03/03 10:45:12;;;;;;;61.00;27.63;;;3.30;99.90;;;;;;5081135;28;20175;-80
2023/03/03 10:48:06;;;;;;;63.10;26.57;;;3.30;99.90;;;;;;5081028;28;20174;-80
2023/03/03 10:50:36;;;;;;;54.87;25.47;;;3.30;99.90;;;;;;5098309;28;20183;-80
2023/03/03 10:53:34;;;;;;;60.67;26.30;;;3.40;99.90;;;;;;5098360;28;20215;-79
2023/03/03 10:56:05;;;;;;;50.47;23.77;;;3.40;99.90;;;;;;5098916;28;20194;-79
2023/03/03 10:59:02;;;;;;;56.97;23.87;;;3.50;99.90;;;;;;5081824;28;20174;-79
2023/03/03 11:01:56;;;;;;;53.60;24.53;;;3.50;99.90;;;;;;5080543;28;20292;-79
2023/03/03 11:04:52;;;;;;;48.93;23.73;;;3.50;99.90;;;;;;5081392;28;20197;-81
2023/03/03 11:07:34;;;;;;;55.67;24.63;;;3.50;99.90;;;;;;5104052;28;20174;-78
2023/03/03 11:10:29;;;;;;;53.00;25.47;;;3.60;99.90;;;;;;5085433;28;20220;-79
2023/03/03 11:13:12;;;;;;;52.93;23.70;;;3.60;99.90;;;;;;5096388;28;20633;-78
2023/03/03 11:15:46;;;;;;;49.30;23.33;;;3.60;99.90;;;;;;5096639;28;20186;-78
2023/03/03 11:18:32;;;;;;;47.97;22.33;;;3.70;99.90;;;;;;5095728;28;20621;-78
2023/03/03 11:21:12;;;;;;;47.10;21.63;;;3.70;99.90;;;;;;5077625;28;20611;-80
2023/03/03 11:23:52;;;;;;;44.27;21.53;;;3.70;99.90;;;;;;5096501;28;20151;-78
2023/03/03 11:26:55;;;;;;;49.00;23.07;;;3.80;99.90;;;;;;5096203;28;20163;-78
2023/03/03 11:29:28;;;;;;;45.13;23.30;;;3.70;99.90;;;;;;5039860;28;20645;-78
2023/03/03 11:32:18;;;;;;;44.63;20.27;;;3.80;99.90;;;;;;5095733;28;20676;-79
2023/03/03 11:35:16;;;;;;;43.00;21.57;;;3.90;99.90;;;;;;5095810;28;20282;-78
2023/03/03 11:37:55;;;;;;;48.53;22.40;;;4.00;99.90;;;;;;5077588;28;20158;-78
2023/03/03 11:40:26;;;;;;;48.90;22.10;;;4.00;99.90;;;;;;5095917;28;20165;-78
2023/03/03 11:43:20;;;;;;;46.67;22.10;;;4.20;99.90;;;;;;5078365;28;20562;-78
2023/03/03 11:45:55;;;;;;;44.07;21.20;;;4.20;99.90;;;;;;5064161;28;20189;-78
2023/03/03 11:48:26;;;;;;;46.93;21.77;;;4.20;99.90;;;;;;5077295;28;20240;-78
2023/03/03 11:51:01;;;;;;;40.77;21.03;;;4.30;99.90;;;;;;5077841;28;20194;-78
2023/03/03 11:53:42;;;;;;;47.03;20.83;;;4.30;99.90;;;;;;5077803;28;20162;-79
2023/03/03 11:56:21;;;;;;;36.50;19.53;;;4.30;99.90;;;;;;5096253;28;20186;-78
2023/03/03 11:58:58;;;;;;;38.90;19.50;;;4.40;99.90;;;;;;5078219;28;20159;-78
2023/03/03 12:01:35;;;;;;;37.63;18.33;;;4.40;99.90;;;;;;5095419;28;20186;-78
2023/03/03 12:04:05;;;;;;;35.70;18.30;;;4.50;99.90;;;;;;5096239;28;20147;-79
2023/03/03 12:06:52;;;;;;;41.00;20.60;;;4.50;99.90;;;;;;5078563;28;20206;-79
2023/03/03 12:09:36;;;;;;;38.00;20.80;;;4.60;99.90;;;;;;5096079;28;20217;-78
2023/03/03 12:12:16;;;;;;;37.80;21.00;;;4.60;99.90;;;;;;5096462;28;20194;-79
2023/03/03 12:15:00;;;;;;;42.57;21.10;;;4.60;99.90;;;;;;5096653;28;20182;-78
2023/03/03 12:17:44;;;;;;;38.07;19.93;;;4.70;99.90;;;;;;5095863;28;20264;-78
2023/03/03 12:20:28;;;;;;;36.87;18.70;;;4.80;99.90;;;;;;5095184;28;20228;-78
2023/03/03 12:23:27;;;;;;;41.47;21.40;;;4.80;99.90;;;;;;5096157;28;20216;-78
2023/03/03 12:26:25;;;;;;;37.67;19.93;;;4.80;99.90;;;;;;5098768;28;20167;-79
2023/03/03 12:29:05;;;;;;;41.73;20.57;;;4.90;99.90;;;;;;5076316;28;20189;-79
2023/03/03 12:31:47;;;;;;;42.07;20.03;;;5.00;99.90;;;;;;5099223;28;20193;-78
2023/03/03 12:34:35;;;;;;;33.80;18.63;;;4.90;99.90;;;;;;5081654;28;20661;-79
2023/03/03 12:37:17;;;;;;;34.47;17.90;;;4.90;99.90;;;;;;5099097;28;20507;-78
2023/03/03 12:39:51;;;;;;;33.40;17.83;;;4.90;99.90;;;;;;5079013;28;20622;-78
2023/03/03 12:42:20;;;;;;;35.80;18.07;;;4.90;99.90;;;;;;5097637;28;20243;-78
2023/03/03 12:45:08;;;;;;;36.30;18.53;;;5.10;99.90;;;;;;5079086;28;20170;-78
2023/03/03 12:48:02;;;;;;;37.00;18.93;;;5.20;99.90;;;;;;5078483;28;20218;-78
2023/03/03 12:50:30;;;;;;;37.30;19.73;;;5.30;99.90;;;;;;5079457;28;20197;-78
2023/03/03 12:53:11;;;;;;;37.07;19.50;;;5.20;99.90;;;;;;5099878;28;20162;-81
2023/03/03 12:56:06;;;;;;;46.80;27.50;;;5.20;99.90;;;;;;5101860;28;20431;-82
2023/03/03 12:59:20;;;;;;;51.30;25.80;;;5.20;99.90;;;;;;5102418;28;20170;-82
2023/03/03 13:02:11;;;;;;;43.77;23.83;;;5.10;99.90;;;;;;5014547;28;20208;-82
2023/03/03 13:04:52;;;;;;;45.30;23.93;;;5.10;99.90;;;;;;5086287;28;20512;-82
2023/03/03 13:07:33;;;;;;;41.30;22.20;;;5.00;99.90;;;;;;5084209;28;20154;-82